sensor_id;sensor_type;location;lat;lon;timestamp;temperature;humidity
71173;DHT22;58875;51.996;4.504;2023-01-10T00:00:51;8.40;75.46
71173;DHT22;58875;51.996;4.504;2023-01-10T00:03:18;8.43;75.50
71173;DHT22;58875;51.996;4.504;2023-01-10T00:05:44;8.40;75.45
71173;DHT22;58875;51.996;4.504;2023-01-10T00:08:14;8.45;75.51
71173;DHT22;58875;51.996;4.504;2023-01-10T00:10:40;8.50;75.17
71173;DHT22;58875;51.996;4.504;2023-01-10T00:13:05;8.51;75.11
71173;DHT22;58875;51.996;4.504;2023-01-10T00:15:54;8.54;75.21
71173;DHT22;58875;51.996;4.504;2023-01-10T00:18:21;8.58;74.93
71173;DHT22;58875;51.996;4.504;2023-01-10T00:20:47;8.57;74.97
71173;DHT22;58875;51.996;4.504;2023-01-10T00:23:14;8.53;75.00
71173;DHT22;58875;51.996;4.504;2023-01-10T00:25:40;8.55;75.19
71173;DHT22;58875;51.996;4.504;2023-01-10T00:28:07;8.58;75.19
71173;DHT22;58875;51.996;4.504;2023-01-10T00:30:42;8.58;75.22
71173;DHT22;58875;51.996;4.504;2023-01-10T00:33:07;8.58;75.35
71173;DHT22;58875;51.996;4.504;2023-01-10T00:35:34;8.64;75.25
71173;DHT22;58875;51.996;4.504;2023-01-10T00:37:59;8.60;75.35
71173;DHT22;58875;51.996;4.504;2023-01-10T00:40:32;8.69;74.96
71173;DHT22;58875;51.996;4.504;2023-01-10T00:42:59;8.68;74.86
71173;DHT22;58875;51.996;4.504;2023-01-10T00:45:47;8.71;74.93
71173;DHT22;58875;51.996;4.504;2023-01-10T00:48:13;8.74;74.93
71173;DHT22;58875;51.996;4.504;2023-01-10T00:50:39;8.71;74.78
71173;DHT22;58875;51.996;4.504;2023-01-10T00:53:05;8.67;74.80
71173;DHT22;58875;51.996;4.504;2023-01-10T00:55:31;8.72;74.82
71173;DHT22;58875;51.996;4.504;2023-01-10T00:57:57;8.75;74.92
71173;DHT22;58875;51.996;4.504;2023-01-10T01:00:23;8.71;74.95
71173;DHT22;58875;51.996;4.504;2023-01-10T01:02:48;8.68;74.88
71173;DHT22;58875;51.996;4.504;2023-01-10T01:05:16;8.67;75.04
71173;DHT22;58875;51.996;4.504;2023-01-10T01:07:41;8.71;74.92
71173;DHT22;58875;51.996;4.504;2023-01-10T01:10:07;8.75;74.91
71173;DHT22;58875;51.996;4.504;2023-01-10T01:12:54;8.74;74.79
71173;DHT22;58875;51.996;4.504;2023-01-10T01:15:20;8.64;75.03
71173;DHT22;58875;51.996;4.504;2023-01-10T01:17:46;8.65;74.97
71173;DHT22;58875;51.996;4.504;2023-01-10T01:20:13;8.67;74.96
71173;DHT22;58875;51.996;4.504;2023-01-10T01:22:39;8.71;74.86
71173;DHT22;58875;51.996;4.504;2023-01-10T01:25:05;8.76;74.74
71173;DHT22;58875;51.996;4.504;2023-01-10T01:27:31;8.76;74.80
71173;DHT22;58875;51.996;4.504;2023-01-10T01:29:57;8.69;75.25
71173;DHT22;58875;51.996;4.504;2023-01-10T01:32:23;8.65;75.21
71173;DHT22;58875;51.996;4.504;2023-01-10T01:34:49;8.65;75.28
71173;DHT22;58875;51.996;4.504;2023-01-10T01:37:14;8.69;75.45
71173;DHT22;58875;51.996;4.504;2023-01-10T01:39:40;8.72;75.39
71173;DHT22;58875;51.996;4.504;2023-01-10T01:42:26;8.72;75.44
71173;DHT22;58875;51.996;4.504;2023-01-10T01:47:47;8.65;75.56
71173;DHT22;58875;51.996;4.504;2023-01-10T01:53:37;8.71;75.49
71173;DHT22;58875;51.996;4.504;2023-01-10T01:56:15;8.71;75.64
71173;DHT22;58875;51.996;4.504;2023-01-10T01:59:06;8.65;75.69
71173;DHT22;58875;51.996;4.504;2023-01-10T02:01:37;8.72;75.49
71173;DHT22;58875;51.996;4.504;2023-01-10T02:04:14;8.76;75.30
71173;DHT22;58875;51.996;4.504;2023-01-10T02:06:44;8.76;75.22
71173;DHT22;58875;51.996;4.504;2023-01-10T02:09:30;8.75;75.31
71173;DHT22;58875;51.996;4.504;2023-01-10T02:11:58;8.72;75.11
71173;DHT22;58875;51.996;4.504;2023-01-10T02:14:25;8.78;75.02
71173;DHT22;58875;51.996;4.504;2023-01-10T02:16:51;8.79;74.85
71173;DHT22;58875;51.996;4.504;2023-01-10T02:25:37;8.71;75.48
71173;DHT22;58875;51.996;4.504;2023-01-10T02:30:45;8.74;75.65
71173;DHT22;58875;51.996;4.504;2023-01-10T02:35:47;8.76;75.79
71173;DHT22;58875;51.996;4.504;2023-01-10T02:41:26;8.81;75.58
71173;DHT22;58875;51.996;4.504;2023-01-10T02:44:06;8.79;75.37
71173;DHT22;58875;51.996;4.504;2023-01-10T02:46:36;8.75;75.71
71173;DHT22;58875;51.996;4.504;2023-01-10T02:49:03;8.69;75.62
71173;DHT22;58875;51.996;4.504;2023-01-10T02:51:30;8.74;75.66
71173;DHT22;58875;51.996;4.504;2023-01-10T02:54:21;8.71;75.74
71173;DHT22;58875;51.996;4.504;2023-01-10T03:10:59;8.60;77.73
71173;DHT22;58875;51.996;4.504;2023-01-10T03:16:00;8.53;78.51
71173;DHT22;58875;51.996;4.504;2023-01-10T03:18:44;8.50;78.72
71173;DHT22;58875;51.996;4.504;2023-01-10T03:21:12;8.47;77.83
71173;DHT22;58875;51.996;4.504;2023-01-10T03:23:37;8.45;77.76
71173;DHT22;58875;51.996;4.504;2023-01-10T03:26:06;8.47;77.61
71173;DHT22;58875;51.996;4.504;2023-01-10T03:28:51;8.44;77.51
71173;DHT22;58875;51.996;4.504;2023-01-10T03:31:42;8.40;77.53
71173;DHT22;58875;51.996;4.504;2023-01-10T03:34:11;8.41;77.55
71173;DHT22;58875;51.996;4.504;2023-01-10T03:36:46;8.38;77.60
71173;DHT22;58875;51.996;4.504;2023-01-10T03:39:19;8.41;77.43
71173;DHT22;58875;51.996;4.504;2023-01-10T03:42:01;8.36;77.50
71173;DHT22;58875;51.996;4.504;2023-01-10T03:44:39;8.36;77.79
71173;DHT22;58875;51.996;4.504;2023-01-10T03:49:43;8.37;77.75
71173;DHT22;58875;51.996;4.504;2023-01-10T03:52:15;8.36;77.46
71173;DHT22;58875;51.996;4.504;2023-01-10T03:54:43;8.34;77.57
71173;DHT22;58875;51.996;4.504;2023-01-10T03:57:16;8.33;77.50
71173;DHT22;58875;51.996;4.504;2023-01-10T03:59:42;8.40;77.44
71173;DHT22;58875;51.996;4.504;2023-01-10T04:02:08;8.37;77.26
71173;DHT22;58875;51.996;4.504;2023-01-10T04:04:33;8.43;77.05
71173;DHT22;58875;51.996;4.504;2023-01-10T04:06:59;8.40;76.96
71173;DHT22;58875;51.996;4.504;2023-01-10T04:09:24;8.38;76.98
71173;DHT22;58875;51.996;4.504;2023-01-10T04:11:50;8.37;76.96
71173;DHT22;58875;51.996;4.504;2023-01-10T04:14:15;8.30;77.28
71173;DHT22;58875;51.996;4.504;2023-01-10T04:16:41;8.26;77.43
71173;DHT22;58875;51.996;4.504;2023-01-10T04:19:06;8.23;77.65
71173;DHT22;58875;51.996;4.504;2023-01-10T04:21:32;8.16;77.90
71173;DHT22;58875;51.996;4.504;2023-01-10T04:23:57;8.13;78.27
71173;DHT22;58875;51.996;4.504;2023-01-10T04:26:23;8.13;78.21
71173;DHT22;58875;51.996;4.504;2023-01-10T04:28:48;8.09;78.36
71173;DHT22;58875;51.996;4.504;2023-01-10T04:31:15;8.06;78.55
71173;DHT22;58875;51.996;4.504;2023-01-10T04:33:41;8.02;78.75
71173;DHT22;58875;51.996;4.504;2023-01-10T04:36:06;8.00;78.82
71173;DHT22;58875;51.996;4.504;2023-01-10T04:38:32;7.94;78.92
71173;DHT22;58875;51.996;4.504;2023-01-10T04:40:57;7.96;79.04
71173;DHT22;58875;51.996;4.504;2023-01-10T04:43:24;7.92;79.28
71173;DHT22;58875;51.996;4.504;2023-01-10T04:45:50;7.96;79.30
71173;DHT22;58875;51.996;4.504;2023-01-10T04:48:16;7.90;79.32
71173;DHT22;58875;51.996;4.504;2023-01-10T04:50:41;7.89;79.58
71173;DHT22;58875;51.996;4.504;2023-01-10T04:53:07;7.90;79.46
71173;DHT22;58875;51.996;4.504;2023-01-10T04:55:34;7.85;79.45
71173;DHT22;58875;51.996;4.504;2023-01-10T04:58:01;7.85;79.58
71173;DHT22;58875;51.996;4.504;2023-01-10T05:00:26;7.87;79.31
71173;DHT22;58875;51.996;4.504;2023-01-10T05:02:56;7.79;79.46
71173;DHT22;58875;51.996;4.504;2023-01-10T05:05:21;7.72;79.85
71173;DHT22;58875;51.996;4.504;2023-01-10T05:07:47;7.68;80.01
71173;DHT22;58875;51.996;4.504;2023-01-10T05:10:13;7.59;80.25
71173;DHT22;58875;51.996;4.504;2023-01-10T05:12:38;7.56;80.60
71173;DHT22;58875;51.996;4.504;2023-01-10T05:15:05;7.47;80.83
71173;DHT22;58875;51.996;4.504;2023-01-10T05:17:30;7.47;80.91
71173;DHT22;58875;51.996;4.504;2023-01-10T05:19:56;7.42;81.20
71173;DHT22;58875;51.996;4.504;2023-01-10T05:22:21;7.41;81.22
71173;DHT22;58875;51.996;4.504;2023-01-10T05:24:47;7.40;81.19
71173;DHT22;58875;51.996;4.504;2023-01-10T05:27:13;7.45;80.86
71173;DHT22;58875;51.996;4.504;2023-01-10T05:29:38;7.45;80.76
71173;DHT22;58875;51.996;4.504;2023-01-10T05:32:04;7.42;80.78
71173;DHT22;58875;51.996;4.504;2023-01-10T05:34:30;7.36;80.88
71173;DHT22;58875;51.996;4.504;2023-01-10T05:36:55;7.44;80.65
71173;DHT22;58875;51.996;4.504;2023-01-10T05:39:21;7.42;80.38
71173;DHT22;58875;51.996;4.504;2023-01-10T05:41:51;7.36;80.33
71173;DHT22;58875;51.996;4.504;2023-01-10T05:44:17;7.34;80.59
71173;DHT22;58875;51.996;4.504;2023-01-10T05:46:42;7.30;80.94
71173;DHT22;58875;51.996;4.504;2023-01-10T05:49:08;7.27;80.97
71173;DHT22;58875;51.996;4.504;2023-01-10T05:51:33;7.24;81.29
71173;DHT22;58875;51.996;4.504;2023-01-10T05:53:59;7.24;81.24
71173;DHT22;58875;51.996;4.504;2023-01-10T05:56:25;7.20;81.80
71173;DHT22;58875;51.996;4.504;2023-01-10T05:58:51;7.21;81.86
71173;DHT22;58875;51.996;4.504;2023-01-10T06:01:17;7.18;81.94
71173;DHT22;58875;51.996;4.504;2023-01-10T06:03:42;7.20;82.07
71173;DHT22;58875;51.996;4.504;2023-01-10T06:06:08;7.21;82.01
71173;DHT22;58875;51.996;4.504;2023-01-10T06:08:35;7.20;82.11
71173;DHT22;58875;51.996;4.504;2023-01-10T06:11:05;7.24;82.14
71173;DHT22;58875;51.996;4.504;2023-01-10T06:13:31;7.28;82.05
71173;DHT22;58875;51.996;4.504;2023-01-10T06:15:56;7.31;81.64
71173;DHT22;58875;51.996;4.504;2023-01-10T06:18:22;7.31;81.57
71173;DHT22;58875;51.996;4.504;2023-01-10T06:20:47;7.38;81.20
71173;DHT22;58875;51.996;4.504;2023-01-10T06:23:13;7.34;81.52
71173;DHT22;58875;51.996;4.504;2023-01-10T06:25:39;7.30;81.50
71173;DHT22;58875;51.996;4.504;2023-01-10T06:28:09;7.32;81.68
71173;DHT22;58875;51.996;4.504;2023-01-10T06:30:35;7.32;81.41
71173;DHT22;58875;51.996;4.504;2023-01-10T06:33:02;7.31;81.60
71173;DHT22;58875;51.996;4.504;2023-01-10T06:35:28;7.32;81.50
71173;DHT22;58875;51.996;4.504;2023-01-10T06:37:54;7.31;81.85
71173;DHT22;58875;51.996;4.504;2023-01-10T06:40:19;7.32;81.90
71173;DHT22;58875;51.996;4.504;2023-01-10T06:42:45;7.40;81.83
71173;DHT22;58875;51.996;4.504;2023-01-10T06:45:11;7.36;82.45
71173;DHT22;58875;51.996;4.504;2023-01-10T06:47:36;7.50;82.48
71173;DHT22;58875;51.996;4.504;2023-01-10T06:50:03;7.62;82.18
71173;DHT22;58875;51.996;4.504;2023-01-10T06:52:29;7.72;82.02
71173;DHT22;58875;51.996;4.504;2023-01-10T06:54:55;7.76;81.69
71173;DHT22;58875;51.996;4.504;2023-01-10T06:57:21;7.82;81.77
71173;DHT22;58875;51.996;4.504;2023-01-10T06:59:47;7.87;81.57
71173;DHT22;58875;51.996;4.504;2023-01-10T07:02:12;7.87;81.44
71173;DHT22;58875;51.996;4.504;2023-01-10T07:04:38;7.89;81.48
71173;DHT22;58875;51.996;4.504;2023-01-10T07:07:04;7.87;81.77
71173;DHT22;58875;51.996;4.504;2023-01-10T07:09:29;7.94;81.71
71173;DHT22;58875;51.996;4.504;2023-01-10T07:11:55;7.99;81.58
71173;DHT22;58875;51.996;4.504;2023-01-10T07:14:21;8.07;81.34
71173;DHT22;58875;51.996;4.504;2023-01-10T07:16:46;7.99;81.23
71173;DHT22;58875;51.996;4.504;2023-01-10T07:19:12;7.96;81.38
71173;DHT22;58875;51.996;4.504;2023-01-10T07:21:38;8.06;80.96
71173;DHT22;58875;51.996;4.504;2023-01-10T07:24:04;8.07;80.84
71173;DHT22;58875;51.996;4.504;2023-01-10T07:26:30;8.00;81.00
71173;DHT22;58875;51.996;4.504;2023-01-10T07:28:56;7.94;81.05
71173;DHT22;58875;51.996;4.504;2023-01-10T07:31:21;7.85;81.10
71173;DHT22;58875;51.996;4.504;2023-01-10T07:33:49;7.85;81.30
71173;DHT22;58875;51.996;4.504;2023-01-10T07:36:15;7.83;81.50
71173;DHT22;58875;51.996;4.504;2023-01-10T07:38:41;7.81;81.57
71173;DHT22;58875;51.996;4.504;2023-01-10T07:41:07;7.90;81.53
71173;DHT22;58875;51.996;4.504;2023-01-10T07:43:33;7.87;81.05
71173;DHT22;58875;51.996;4.504;2023-01-10T07:46:01;7.72;81.45
71173;DHT22;58875;51.996;4.504;2023-01-10T07:48:27;7.71;81.48
71173;DHT22;58875;51.996;4.504;2023-01-10T07:50:57;7.59;81.93
71173;DHT22;58875;51.996;4.504;2023-01-10T07:53:23;7.54;81.98
71173;DHT22;58875;51.996;4.504;2023-01-10T07:55:49;7.45;82.32
71173;DHT22;58875;51.996;4.504;2023-01-10T07:58:15;7.34;82.53
71173;DHT22;58875;51.996;4.504;2023-01-10T08:00:40;7.32;82.72
71173;DHT22;58875;51.996;4.504;2023-01-10T08:03:06;7.36;82.42
71173;DHT22;58875;51.996;4.504;2023-01-10T08:05:34;7.36;82.34
71173;DHT22;58875;51.996;4.504;2023-01-10T08:08:04;7.31;82.30
71173;DHT22;58875;51.996;4.504;2023-01-10T08:10:29;7.20;82.55
71173;DHT22;58875;51.996;4.504;2023-01-10T08:12:55;7.24;82.77
71173;DHT22;58875;51.996;4.504;2023-01-10T08:15:22;7.28;82.30
71173;DHT22;58875;51.996;4.504;2023-01-10T08:17:47;7.32;82.29
71173;DHT22;58875;51.996;4.504;2023-01-10T08:20:13;7.30;82.02
71173;DHT22;58875;51.996;4.504;2023-01-10T08:22:38;7.31;82.05
71173;DHT22;58875;51.996;4.504;2023-01-10T08:25:04;7.27;82.16
71173;DHT22;58875;51.996;4.504;2023-01-10T08:27:29;7.21;82.29
71173;DHT22;58875;51.996;4.504;2023-01-10T08:29:55;7.10;82.53
71173;DHT22;58875;51.996;4.504;2023-01-10T08:32:20;7.13;82.57
71173;DHT22;58875;51.996;4.504;2023-01-10T08:34:46;7.11;82.40
71173;DHT22;58875;51.996;4.504;2023-01-10T08:37:13;7.05;82.76
71173;DHT22;58875;51.996;4.504;2023-01-10T08:39:38;7.05;82.72
71173;DHT22;58875;51.996;4.504;2023-01-10T08:42:04;7.07;82.77
71173;DHT22;58875;51.996;4.504;2023-01-10T08:44:29;7.11;82.68
71173;DHT22;58875;51.996;4.504;2023-01-10T08:46:55;7.15;82.62
71173;DHT22;58875;51.996;4.504;2023-01-10T08:49:21;7.11;82.35
71173;DHT22;58875;51.996;4.504;2023-01-10T08:51:47;7.21;82.25
71173;DHT22;58875;51.996;4.504;2023-01-10T08:54:12;7.24;82.04
71173;DHT22;58875;51.996;4.504;2023-01-10T08:56:38;7.31;81.85
71173;DHT22;58875;51.996;4.504;2023-01-10T08:59:05;7.35;81.76
71173;DHT22;58875;51.996;4.504;2023-01-10T09:01:30;7.35;81.84
71173;DHT22;58875;51.996;4.504;2023-01-10T09:03:56;7.32;81.77
71173;DHT22;58875;51.996;4.504;2023-01-10T09:06:21;7.25;82.05
71173;DHT22;58875;51.996;4.504;2023-01-10T09:08:48;7.28;81.98
71173;DHT22;58875;51.996;4.504;2023-01-10T09:11:14;7.25;81.94
71173;DHT22;58875;51.996;4.504;2023-01-10T09:13:39;7.25;81.89
71173;DHT22;58875;51.996;4.504;2023-01-10T09:16:06;7.28;81.83
71173;DHT22;58875;51.996;4.504;2023-01-10T09:18:32;7.28;81.68
71173;DHT22;58875;51.996;4.504;2023-01-10T09:20:58;7.27;81.42
71173;DHT22;58875;51.996;4.504;2023-01-10T09:23:24;7.31;81.34
71173;DHT22;58875;51.996;4.504;2023-01-10T09:25:52;7.21;81.42
71173;DHT22;58875;51.996;4.504;2023-01-10T09:28:21;7.22;81.38
71173;DHT22;58875;51.996;4.504;2023-01-10T09:30:50;7.30;81.50
71173;DHT22;58875;51.996;4.504;2023-01-10T09:33:16;7.30;80.96
71173;DHT22;58875;51.996;4.504;2023-01-10T09:35:41;7.24;81.15
71173;DHT22;58875;51.996;4.504;2023-01-10T09:38:11;7.28;81.06
71173;DHT22;58875;51.996;4.504;2023-01-10T09:49:46;7.21;81.10
71173;DHT22;58875;51.996;4.504;2023-01-10T09:54:57;7.14;80.70
71173;DHT22;58875;51.996;4.504;2023-01-10T09:57:24;7.13;80.32
71173;DHT22;58875;51.996;4.504;2023-01-10T09:59:52;7.22;79.96
71173;DHT22;58875;51.996;4.504;2023-01-10T10:05:17;7.15;79.82
71173;DHT22;58875;51.996;4.504;2023-01-10T10:07:45;7.05;79.98
71173;DHT22;58875;51.996;4.504;2023-01-10T10:10:21;7.05;79.76
71173;DHT22;58875;51.996;4.504;2023-01-10T10:26:55;7.10;79.38
71173;DHT22;58875;51.996;4.504;2023-01-10T10:29:51;7.10;79.56
71173;DHT22;58875;51.996;4.504;2023-01-10T10:35:12;7.04;79.29
71173;DHT22;58875;51.996;4.504;2023-01-10T10:37:49;7.08;79.42
71173;DHT22;58875;51.996;4.504;2023-01-10T10:42:51;7.20;79.26
71173;DHT22;58875;51.996;4.504;2023-01-10T10:45:37;7.32;78.96
71173;DHT22;58875;51.996;4.504;2023-01-10T10:48:26;7.35;78.92
71173;DHT22;58875;51.996;4.504;2023-01-10T10:53:33;7.34;79.07
71173;DHT22;58875;51.996;4.504;2023-01-10T10:56:01;7.34;79.19
71173;DHT22;58875;51.996;4.504;2023-01-10T10:58:28;7.42;79.33
71173;DHT22;58875;51.996;4.504;2023-01-10T11:00:55;7.45;79.09
71173;DHT22;58875;51.996;4.504;2023-01-10T11:03:45;7.52;79.18
71173;DHT22;58875;51.996;4.504;2023-01-10T11:06:14;7.58;79.08
71173;DHT22;58875;51.996;4.504;2023-01-10T11:08:43;7.61;79.06
71173;DHT22;58875;51.996;4.504;2023-01-10T11:11:29;7.71;79.03
71173;DHT22;58875;51.996;4.504;2023-01-10T11:13:58;7.73;78.56
71173;DHT22;58875;51.996;4.504;2023-01-10T11:16:33;7.81;78.73
71173;DHT22;58875;51.996;4.504;2023-01-10T11:19:22;7.83;78.52
71173;DHT22;58875;51.996;4.504;2023-01-10T11:21:59;7.78;78.64
71173;DHT22;58875;51.996;4.504;2023-01-10T11:24:31;7.76;78.60
71173;DHT22;58875;51.996;4.504;2023-01-10T11:27:18;7.82;78.64
71173;DHT22;58875;51.996;4.504;2023-01-10T11:29:52;7.87;78.73
71173;DHT22;58875;51.996;4.504;2023-01-10T11:32:31;7.89;78.37
71173;DHT22;58875;51.996;4.504;2023-01-10T11:35:01;7.99;78.17
71173;DHT22;58875;51.996;4.504;2023-01-10T11:37:30;7.87;78.36
71173;DHT22;58875;51.996;4.504;2023-01-10T11:40:22;7.83;78.58
71173;DHT22;58875;51.996;4.504;2023-01-10T11:42:51;7.81;78.44
71173;DHT22;58875;51.996;4.504;2023-01-10T11:48:01;7.85;78.91
71173;DHT22;58875;51.996;4.504;2023-01-10T11:50:34;7.94;78.78
71173;DHT22;58875;51.996;4.504;2023-01-10T11:53:01;7.78;78.92
71173;DHT22;58875;51.996;4.504;2023-01-10T11:55:30;7.86;78.72
71173;DHT22;58875;51.996;4.504;2023-01-10T12:00:35;8.02;78.60
71173;DHT22;58875;51.996;4.504;2023-01-10T12:05:55;8.10;78.26
71173;DHT22;58875;51.996;4.504;2023-01-10T12:08:34;8.06;78.39
71173;DHT22;58875;51.996;4.504;2023-01-10T12:13:47;8.12;78.08
71173;DHT22;58875;51.996;4.504;2023-01-10T12:18:55;8.07;78.22
71173;DHT22;58875;51.996;4.504;2023-01-10T12:21:44;7.94;78.28
71173;DHT22;58875;51.996;4.504;2023-01-10T12:24:28;8.00;78.57
71173;DHT22;58875;51.996;4.504;2023-01-10T12:26:56;8.16;78.09
71173;DHT22;58875;51.996;4.504;2023-01-10T12:29:27;8.13;78.12
71173;DHT22;58875;51.996;4.504;2023-01-10T12:31:56;8.14;78.23
71173;DHT22;58875;51.996;4.504;2023-01-10T12:34:30;8.04;78.56
71173;DHT22;58875;51.996;4.504;2023-01-10T12:39:48;8.13;77.85
71173;DHT22;58875;51.996;4.504;2023-01-10T12:42:38;8.04;78.33
71173;DHT22;58875;51.996;4.504;2023-01-10T12:45:34;8.19;78.09
71173;DHT22;58875;51.996;4.504;2023-01-10T12:48:26;8.13;78.30
71173;DHT22;58875;51.996;4.504;2023-01-10T12:51:06;8.16;78.47
71173;DHT22;58875;51.996;4.504;2023-01-10T12:53:59;8.20;78.34
71173;DHT22;58875;51.996;4.504;2023-01-10T12:56:28;8.17;78.63
71173;DHT22;58875;51.996;4.504;2023-01-10T12:59:04;8.14;78.98
71173;DHT22;58875;51.996;4.504;2023-01-10T13:01:37;8.10;79.27
71173;DHT22;58875;51.996;4.504;2023-01-10T13:04:09;8.03;80.02
71173;DHT22;58875;51.996;4.504;2023-01-10T13:06:39;7.97;80.67
71173;DHT22;58875;51.996;4.504;2023-01-10T13:09:27;7.82;81.09
71173;DHT22;58875;51.996;4.504;2023-01-10T13:12:20;7.82;82.15
71173;DHT22;58875;51.996;4.504;2023-01-10T13:14:56;7.89;82.36
71173;DHT22;58875;51.996;4.504;2023-01-10T13:17:38;7.75;82.31
71173;DHT22;58875;51.996;4.504;2023-01-10T13:22:53;7.68;83.39
71173;DHT22;58875;51.996;4.504;2023-01-10T13:25:29;7.65;83.70
71173;DHT22;58875;51.996;4.504;2023-01-10T13:28:04;7.65;83.83
71173;DHT22;58875;51.996;4.504;2023-01-10T13:30:33;7.56;83.86
71173;DHT22;58875;51.996;4.504;2023-01-10T13:35:41;7.55;84.30
71173;DHT22;58875;51.996;4.504;2023-01-10T13:38:23;7.52;83.99
71173;DHT22;58875;51.996;4.504;2023-01-10T13:41:20;7.47;84.68
71173;DHT22;58875;51.996;4.504;2023-01-10T13:44:10;7.54;84.75
71173;DHT22;58875;51.996;4.504;2023-01-10T13:46:40;7.62;84.67
71173;DHT22;58875;51.996;4.504;2023-01-10T13:51:34;7.59;84.52
71173;DHT22;58875;51.996;4.504;2023-01-10T13:54:24;7.55;84.91
71173;DHT22;58875;51.996;4.504;2023-01-10T13:56:50;7.48;84.94
71173;DHT22;58875;51.996;4.504;2023-01-10T14:02:23;7.50;85.37
71173;DHT22;58875;51.996;4.504;2023-01-10T14:05:02;7.47;85.70
71173;DHT22;58875;51.996;4.504;2023-01-10T14:07:48;7.50;85.90
71173;DHT22;58875;51.996;4.504;2023-01-10T14:10:26;7.45;85.77
71173;DHT22;58875;51.996;4.504;2023-01-10T14:12:54;7.36;86.10
71173;DHT22;58875;51.996;4.504;2023-01-10T14:15:30;7.45;86.19
71173;DHT22;58875;51.996;4.504;2023-01-10T14:18:16;7.42;86.15
71173;DHT22;58875;51.996;4.504;2023-01-10T14:20:43;7.35;86.74
71173;DHT22;58875;51.996;4.504;2023-01-10T14:23:26;7.24;86.77
71173;DHT22;58875;51.996;4.504;2023-01-10T14:25:55;7.24;86.82
71173;DHT22;58875;51.996;4.504;2023-01-10T14:28:25;7.28;86.98
71173;DHT22;58875;51.996;4.504;2023-01-10T14:31:12;7.30;87.00
71173;DHT22;58875;51.996;4.504;2023-01-10T14:33:42;7.30;87.11
71173;DHT22;58875;51.996;4.504;2023-01-10T14:36:17;7.21;87.48
71173;DHT22;58875;51.996;4.504;2023-01-10T14:38:46;7.28;87.33
71173;DHT22;58875;51.996;4.504;2023-01-10T14:41:20;7.28;87.35
71173;DHT22;58875;51.996;4.504;2023-01-10T14:43:54;7.24;87.19
71173;DHT22;58875;51.996;4.504;2023-01-10T14:46:30;7.13;87.63
71173;DHT22;58875;51.996;4.504;2023-01-10T14:48:57;7.14;87.78
71173;DHT22;58875;51.996;4.504;2023-01-10T14:51:25;7.20;87.76
71173;DHT22;58875;51.996;4.504;2023-01-10T14:56:37;7.21;87.64
71173;DHT22;58875;51.996;4.504;2023-01-10T14:59:29;7.17;87.91
71173;DHT22;58875;51.996;4.504;2023-01-10T15:01:58;7.17;87.99
71173;DHT22;58875;51.996;4.504;2023-01-10T15:04:32;7.03;88.24
71173;DHT22;58875;51.996;4.504;2023-01-10T15:07:14;7.03;88.44
71173;DHT22;58875;51.996;4.504;2023-01-10T15:09:47;7.10;88.67
71173;DHT22;58875;51.996;4.504;2023-01-10T15:12:15;7.11;88.36
71173;DHT22;58875;51.996;4.504;2023-01-10T15:14:41;7.13;88.47
71173;DHT22;58875;51.996;4.504;2023-01-10T15:17:14;7.15;88.63
71173;DHT22;58875;51.996;4.504;2023-01-10T15:19:47;7.14;88.42
71173;DHT22;58875;51.996;4.504;2023-01-10T15:22:37;7.15;88.42
71173;DHT22;58875;51.996;4.504;2023-01-10T15:25:25;7.13;88.75
71173;DHT22;58875;51.996;4.504;2023-01-10T15:27:54;7.01;88.79
71173;DHT22;58875;51.996;4.504;2023-01-10T15:30:24;7.17;88.93
71173;DHT22;58875;51.996;4.504;2023-01-10T15:32:53;7.17;88.85
71173;DHT22;58875;51.996;4.504;2023-01-10T15:35:23;7.10;88.85
71173;DHT22;58875;51.996;4.504;2023-01-10T15:38:12;7.11;89.11
71173;DHT22;58875;51.996;4.504;2023-01-10T15:40:40;7.08;89.23
71173;DHT22;58875;51.996;4.504;2023-01-10T15:43:29;7.10;89.58
71173;DHT22;58875;51.996;4.504;2023-01-10T15:45:57;7.08;89.60
71173;DHT22;58875;51.996;4.504;2023-01-10T15:50:54;7.14;89.41
71173;DHT22;58875;51.996;4.504;2023-01-10T15:56:33;7.15;89.59
71173;DHT22;58875;51.996;4.504;2023-01-10T15:59:01;7.15;89.70
71173;DHT22;58875;51.996;4.504;2023-01-10T16:01:27;7.13;89.73
71173;DHT22;58875;51.996;4.504;2023-01-10T16:03:57;7.18;89.83
71173;DHT22;58875;51.996;4.504;2023-01-10T16:06:31;7.20;89.66
71173;DHT22;58875;51.996;4.504;2023-01-10T16:09:00;7.17;89.91
71173;DHT22;58875;51.996;4.504;2023-01-10T16:11:48;7.18;89.81
71173;DHT22;58875;51.996;4.504;2023-01-10T16:14:34;7.25;89.83
71173;DHT22;58875;51.996;4.504;2023-01-10T16:17:01;7.25;89.95
71173;DHT22;58875;51.996;4.504;2023-01-10T16:19:27;7.21;89.95
71173;DHT22;58875;51.996;4.504;2023-01-10T16:21:55;7.28;90.04
71173;DHT22;58875;51.996;4.504;2023-01-10T16:24:31;7.22;90.23
71173;DHT22;58875;51.996;4.504;2023-01-10T16:26:58;7.30;90.14
71173;DHT22;58875;51.996;4.504;2023-01-10T16:29:27;7.27;90.38
71173;DHT22;58875;51.996;4.504;2023-01-10T16:31:52;7.28;90.53
71173;DHT22;58875;51.996;4.504;2023-01-10T16:34:19;7.40;90.31
71173;DHT22;58875;51.996;4.504;2023-01-10T16:36:44;7.32;90.24
71173;DHT22;58875;51.996;4.504;2023-01-10T16:39:19;7.42;90.38
71173;DHT22;58875;51.996;4.504;2023-01-10T16:41:45;7.40;90.25
71173;DHT22;58875;51.996;4.504;2023-01-10T16:44:31;7.47;90.28
71173;DHT22;58875;51.996;4.504;2023-01-10T16:46:58;7.47;90.30
71173;DHT22;58875;51.996;4.504;2023-01-10T16:49:27;7.59;90.18
71173;DHT22;58875;51.996;4.504;2023-01-10T16:51:53;7.56;90.24
71173;DHT22;58875;51.996;4.504;2023-01-10T16:54:22;7.66;90.01
71173;DHT22;58875;51.996;4.504;2023-01-10T16:56:49;7.69;90.00
71173;DHT22;58875;51.996;4.504;2023-01-10T16:59:15;7.69;90.11
71173;DHT22;58875;51.996;4.504;2023-01-10T17:01:54;7.69;90.06
71173;DHT22;58875;51.996;4.504;2023-01-10T17:04:24;7.81;90.01
71173;DHT22;58875;51.996;4.504;2023-01-10T17:06:51;7.83;89.81
71173;DHT22;58875;51.996;4.504;2023-01-10T17:09:28;7.87;89.83
71173;DHT22;58875;51.996;4.504;2023-01-10T17:11:56;7.87;89.85
71173;DHT22;58875;51.996;4.504;2023-01-10T17:14:35;7.96;89.54
71173;DHT22;58875;51.996;4.504;2023-01-10T17:17:01;8.06;89.47
71173;DHT22;58875;51.996;4.504;2023-01-10T17:19:27;8.03;89.44
71173;DHT22;58875;51.996;4.504;2023-01-10T17:21:53;8.02;89.67
71173;DHT22;58875;51.996;4.504;2023-01-10T17:24:18;8.09;89.37
71173;DHT22;58875;51.996;4.504;2023-01-10T17:26:44;8.10;89.57
71173;DHT22;58875;51.996;4.504;2023-01-10T17:29:10;8.13;89.46
71173;DHT22;58875;51.996;4.504;2023-01-10T17:31:36;8.19;89.45
71173;DHT22;58875;51.996;4.504;2023-01-10T17:34:02;8.24;89.36
71173;DHT22;58875;51.996;4.504;2023-01-10T17:36:27;8.30;89.00
71173;DHT22;58875;51.996;4.504;2023-01-10T17:38:55;8.32;89.10
71173;DHT22;58875;51.996;4.504;2023-01-10T17:41:21;8.32;89.15
71173;DHT22;58875;51.996;4.504;2023-01-10T17:43:47;8.44;89.01
71173;DHT22;58875;51.996;4.504;2023-01-10T17:46:12;8.48;88.82
71173;DHT22;58875;51.996;4.504;2023-01-10T17:48:40;8.45;88.73
71173;DHT22;58875;51.996;4.504;2023-01-10T17:51:06;8.50;88.99
71173;DHT22;58875;51.996;4.504;2023-01-10T17:53:32;8.54;88.88
71173;DHT22;58875;51.996;4.504;2023-01-10T17:55:58;8.47;88.99